sensor_id;sensor_type;location;lat;lon;timestamp;temperature;humidity
69823;SHT31;57119;52.516;13.508;2023-02-15T00:01:52;2.61;98.85
69823;SHT31;57119;52.516;13.508;2023-02-15T00:04:22;2.46;99.36
69823;SHT31;57119;52.516;13.508;2023-02-15T00:06:48;2.29;99.44
69823;SHT31;57119;52.516;13.508;2023-02-15T00:09:13;2.08;99.63
69823;SHT31;57119;52.516;13.508;2023-02-15T00:11:40;1.89;99.81
69823;SHT31;57119;52.516;13.508;2023-02-15T00:14:11;1.71;99.99
69823;SHT31;57119;52.516;13.508;2023-02-15T00:16:38;1.61;99.99
69823;SHT31;57119;52.516;13.508;2023-02-15T00:19:05;1.52;99.99
69823;SHT31;57119;52.516;13.508;2023-02-15T00:21:32;1.39;99.99
69823;SHT31;57119;52.516;13.508;2023-02-15T00:23:59;1.33;99.99
69823;SHT31;57119;52.516;13.508;2023-02-15T00:26:28;1.37;99.99
69823;SHT31;57119;52.516;13.508;2023-02-15T00:28:54;1.16;99.99
69823;SHT31;57119;52.516;13.508;2023-02-15T00:31:20;1.07;99.99
69823;SHT31;57119;52.516;13.508;2023-02-15T00:33:46;0.92;99.99
69823;SHT31;57119;52.516;13.508;2023-02-15T00:36:11;1.06;99.99
69823;SHT31;57119;52.516;13.508;2023-02-15T00:38:37;0.92;99.99
69823;SHT31;57119;52.516;13.508;2023-02-15T00:41:04;0.82;99.99
69823;SHT31;57119;52.516;13.508;2023-02-15T00:43:31;0.69;99.99
69823;SHT31;57119;52.516;13.508;2023-02-15T00:45:57;0.65;99.99
69823;SHT31;57119;52.516;13.508;2023-02-15T00:48:23;0.60;99.99
69823;SHT31;57119;52.516;13.508;2023-02-15T00:50:50;0.51;99.99
69823;SHT31;57119;52.516;13.508;2023-02-15T00:53:16;0.55;99.99
69823;SHT31;57119;52.516;13.508;2023-02-15T00:55:41;0.60;99.99
69823;SHT31;57119;52.516;13.508;2023-02-15T00:58:08;0.54;99.99
69823;SHT31;57119;52.516;13.508;2023-02-15T01:00:33;0.54;99.99
69823;SHT31;57119;52.516;13.508;2023-02-15T01:02:59;0.58;99.99
69823;SHT31;57119;52.516;13.508;2023-02-15T01:05:24;0.44;99.99
69823;SHT31;57119;52.516;13.508;2023-02-15T01:07:49;0.44;99.99
69823;SHT31;57119;52.516;13.508;2023-02-15T01:10:15;0.37;99.99
69823;SHT31;57119;52.516;13.508;2023-02-15T01:12:40;0.34;99.99
69823;SHT31;57119;52.516;13.508;2023-02-15T01:15:06;0.24;99.99
69823;SHT31;57119;52.516;13.508;2023-02-15T01:17:32;0.26;99.99
69823;SHT31;57119;52.516;13.508;2023-02-15T01:19:57;0.30;99.99
69823;SHT31;57119;52.516;13.508;2023-02-15T01:22:23;0.16;99.99
69823;SHT31;57119;52.516;13.508;2023-02-15T01:24:51;0.07;99.99
69823;SHT31;57119;52.516;13.508;2023-02-15T01:27:17;0.24;99.99
69823;SHT31;57119;52.516;13.508;2023-02-15T01:29:43;0.24;99.99
69823;SHT31;57119;52.516;13.508;2023-02-15T01:32:08;0.20;99.99
69823;SHT31;57119;52.516;13.508;2023-02-15T01:34:34;0.16;99.99
69823;SHT31;57119;52.516;13.508;2023-02-15T01:36:59;0.16;99.99
69823;SHT31;57119;52.516;13.508;2023-02-15T01:39:25;0.06;99.99
69823;SHT31;57119;52.516;13.508;2023-02-15T01:41:50;0.13;99.99
69823;SHT31;57119;52.516;13.508;2023-02-15T01:47:15;-0.01;99.99
69823;SHT31;57119;52.516;13.508;2023-02-15T01:49:43;-0.19;99.99
69823;SHT31;57119;52.516;13.508;2023-02-15T01:52:14;-0.19;99.99
69823;SHT31;57119;52.516;13.508;2023-02-15T01:54:42;-0.14;99.99
69823;SHT31;57119;52.516;13.508;2023-02-15T01:57:12;-0.29;99.99
69823;SHT31;57119;52.516;13.508;2023-02-15T01:59:39;-0.46;99.99
69823;SHT31;57119;52.516;13.508;2023-02-15T02:02:09;-0.49;99.99
69823;SHT31;57119;52.516;13.508;2023-02-15T02:04:47;-0.52;99.99
69823;SHT31;57119;52.516;13.508;2023-02-15T02:07:16;-0.55;99.99
69823;SHT31;57119;52.516;13.508;2023-02-15T02:09:42;-0.52;99.99
69823;SHT31;57119;52.516;13.508;2023-02-15T02:12:08;-0.41;99.99
69823;SHT31;57119;52.516;13.508;2023-02-15T02:14:35;-0.34;99.99
69823;SHT31;57119;52.516;13.508;2023-02-15T02:17:12;-0.41;99.99
69823;SHT31;57119;52.516;13.508;2023-02-15T02:30:32;-0.63;99.99
69823;SHT31;57119;52.516;13.508;2023-02-15T02:36:06;-0.68;99.99
69823;SHT31;57119;52.516;13.508;2023-02-15T02:38:52;-0.72;99.99
69823;SHT31;57119;52.516;13.508;2023-02-15T02:41:32;-0.55;99.99
69823;SHT31;57119;52.516;13.508;2023-02-15T02:44:18;-0.58;99.99
69823;SHT31;57119;52.516;13.508;2023-02-15T02:46:59;-0.59;99.99
69823;SHT31;57119;52.516;13.508;2023-02-15T02:49:34;-0.68;99.99
69823;SHT31;57119;52.516;13.508;2023-02-15T02:52:51;-0.61;99.99
69823;SHT31;57119;52.516;13.508;2023-02-15T02:54:51;-0.63;99.99
69823;SHT31;57119;52.516;13.508;2023-02-15T02:57:18;-0.69;99.99
69823;SHT31;57119;52.516;13.508;2023-02-15T02:59:45;-0.70;99.99
69823;SHT31;57119;52.516;13.508;2023-02-15T03:02:17;-0.76;99.99
69823;SHT31;57119;52.516;13.508;2023-02-15T03:04:56;-0.79;99.99
69823;SHT31;57119;52.516;13.508;2023-02-15T03:07:25;-0.83;99.99
69823;SHT31;57119;52.516;13.508;2023-02-15T03:09:55;-0.94;99.99
69823;SHT31;57119;52.516;13.508;2023-02-15T03:12:28;-0.91;99.99
69823;SHT31;57119;52.516;13.508;2023-02-15T03:15:17;-0.87;99.99
69823;SHT31;57119;52.516;13.508;2023-02-15T03:17:48;-1.04;99.99
69823;SHT31;57119;52.516;13.508;2023-02-15T03:20:28;-1.00;99.99
69823;SHT31;57119;52.516;13.508;2023-02-15T03:22:58;-0.84;99.99
69823;SHT31;57119;52.516;13.508;2023-02-15T03:25:32;-0.89;99.99
69823;SHT31;57119;52.516;13.508;2023-02-15T03:28:05;-0.97;99.99
69823;SHT31;57119;52.516;13.508;2023-02-15T03:30:33;-0.87;99.99
69823;SHT31;57119;52.516;13.508;2023-02-15T03:33:00;-0.83;99.99
69823;SHT31;57119;52.516;13.508;2023-02-15T03:35:36;-0.83;99.99
69823;SHT31;57119;52.516;13.508;2023-02-15T03:38:06;-0.87;99.99
69823;SHT31;57119;52.516;13.508;2023-02-15T03:40:38;-1.04;99.99
69823;SHT31;57119;52.516;13.508;2023-02-15T03:46:19;-1.14;99.99
69823;SHT31;57119;52.516;13.508;2023-02-15T03:48:50;-1.08;99.99
69823;SHT31;57119;52.516;13.508;2023-02-15T03:51:19;-1.14;99.99
69823;SHT31;57119;52.516;13.508;2023-02-15T03:54:11;-1.17;99.99
69823;SHT31;57119;52.516;13.508;2023-02-15T03:56:40;-1.03;99.99
69823;SHT31;57119;52.516;13.508;2023-02-15T03:59:07;-0.93;99.99
69823;SHT31;57119;52.516;13.508;2023-02-15T04:02:01;-0.94;99.99
69823;SHT31;57119;52.516;13.508;2023-02-15T04:04:35;-1.00;99.99
69823;SHT31;57119;52.516;13.508;2023-02-15T04:07:02;-1.15;99.99
69823;SHT31;57119;52.516;13.508;2023-02-15T04:09:27;-1.31;99.99
69823;SHT31;57119;52.516;13.508;2023-02-15T04:12:11;-1.27;99.99
69823;SHT31;57119;52.516;13.508;2023-02-15T04:14:36;-1.25;99.99
69823;SHT31;57119;52.516;13.508;2023-02-15T04:17:20;-1.12;99.99
69823;SHT31;57119;52.516;13.508;2023-02-15T04:19:46;-1.03;99.99
69823;SHT31;57119;52.516;13.508;2023-02-15T04:22:30;-1.07;99.99
69823;SHT31;57119;52.516;13.508;2023-02-15T04:25:14;-1.05;99.99
69823;SHT31;57119;52.516;13.508;2023-02-15T04:27:43;-1.07;99.99
69823;SHT31;57119;52.516;13.508;2023-02-15T04:30:09;-1.00;99.99
69823;SHT31;57119;52.516;13.508;2023-02-15T04:32:35;-1.05;99.99
69823;SHT31;57119;52.516;13.508;2023-02-15T04:35:01;-1.11;99.99
69823;SHT31;57119;52.516;13.508;2023-02-15T04:37:27;-1.11;99.99
69823;SHT31;57119;52.516;13.508;2023-02-15T04:39:52;-1.07;99.99
69823;SHT31;57119;52.516;13.508;2023-02-15T04:42:18;-1.11;99.99
69823;SHT31;57119;52.516;13.508;2023-02-15T04:44:43;-1.21;99.99
69823;SHT31;57119;52.516;13.508;2023-02-15T04:47:09;-1.24;99.99
69823;SHT31;57119;52.516;13.508;2023-02-15T04:49:34;-1.28;99.99
69823;SHT31;57119;52.516;13.508;2023-02-15T04:51:59;-1.28;99.99
69823;SHT31;57119;52.516;13.508;2023-02-15T04:54:25;-1.34;99.99
69823;SHT31;57119;52.516;13.508;2023-02-15T04:56:50;-1.34;99.99
69823;SHT31;57119;52.516;13.508;2023-02-15T04:59:16;-1.34;99.99
69823;SHT31;57119;52.516;13.508;2023-02-15T05:01:41;-1.47;99.99
69823;SHT31;57119;52.516;13.508;2023-02-15T05:04:07;-1.51;99.99
69823;SHT31;57119;52.516;13.508;2023-02-15T05:06:33;-1.40;99.99
69823;SHT31;57119;52.516;13.508;2023-02-15T05:08:58;-1.40;99.99
69823;SHT31;57119;52.516;13.508;2023-02-15T05:11:24;-1.47;99.99
69823;SHT31;57119;52.516;13.508;2023-02-15T05:13:50;-1.44;99.99
69823;SHT31;57119;52.516;13.508;2023-02-15T05:16:15;-1.41;99.99
69823;SHT31;57119;52.516;13.508;2023-02-15T05:18:41;-1.49;99.99
69823;SHT31;57119;52.516;13.508;2023-02-15T05:21:06;-1.41;99.99
69823;SHT31;57119;52.516;13.508;2023-02-15T05:23:31;-1.41;99.99
69823;SHT31;57119;52.516;13.508;2023-02-15T05:25:57;-1.35;99.99
69823;SHT31;57119;52.516;13.508;2023-02-15T05:28:41;-1.44;99.99
69823;SHT31;57119;52.516;13.508;2023-02-15T05:33:32;-1.37;99.99
69823;SHT31;57119;52.516;13.508;2023-02-15T05:35:58;-1.24;99.99
69823;SHT31;57119;52.516;13.508;2023-02-15T05:38:23;-1.18;99.99
69823;SHT31;57119;52.516;13.508;2023-02-15T05:40:50;-1.15;99.99
69823;SHT31;57119;52.516;13.508;2023-02-15T05:43:16;-1.08;99.99
69823;SHT31;57119;52.516;13.508;2023-02-15T05:45:47;-1.01;99.99
69823;SHT31;57119;52.516;13.508;2023-02-15T05:48:14;-0.96;99.99
69823;SHT31;57119;52.516;13.508;2023-02-15T05:50:39;-0.87;99.99
69823;SHT31;57119;52.516;13.508;2023-02-15T05:53:04;-0.83;99.99
69823;SHT31;57119;52.516;13.508;2023-02-15T05:55:30;-0.79;99.99
69823;SHT31;57119;52.516;13.508;2023-02-15T05:57:55;-0.79;99.99
69823;SHT31;57119;52.516;13.508;2023-02-15T06:00:21;-0.76;99.99
69823;SHT31;57119;52.516;13.508;2023-02-15T06:02:46;-0.59;99.99
69823;SHT31;57119;52.516;13.508;2023-02-15T06:05:11;-0.66;99.99
69823;SHT31;57119;52.516;13.508;2023-02-15T06:07:37;-0.74;99.99
69823;SHT31;57119;52.516;13.508;2023-02-15T06:10:03;-0.86;99.99
69823;SHT31;57119;52.516;13.508;2023-02-15T06:12:29;-0.94;99.99
69823;SHT31;57119;52.516;13.508;2023-02-15T06:14:54;-0.96;99.99
69823;SHT31;57119;52.516;13.508;2023-02-15T06:17:20;-1.04;99.99
69823;SHT31;57119;52.516;13.508;2023-02-15T06:19:46;-1.05;99.99
69823;SHT31;57119;52.516;13.508;2023-02-15T06:22:12;-0.82;99.99
69823;SHT31;57119;52.516;13.508;2023-02-15T06:24:39;-0.79;99.99
69823;SHT31;57119;52.516;13.508;2023-02-15T06:27:04;-0.82;99.99
69823;SHT31;57119;52.516;13.508;2023-02-15T06:29:30;-0.97;99.99
69823;SHT31;57119;52.516;13.508;2023-02-15T06:31:55;-0.93;99.99
69823;SHT31;57119;52.516;13.508;2023-02-15T06:34:20;-0.77;99.99
69823;SHT31;57119;52.516;13.508;2023-02-15T06:36:46;-0.86;99.99
69823;SHT31;57119;52.516;13.508;2023-02-15T06:39:11;-0.86;99.99
69823;SHT31;57119;52.516;13.508;2023-02-15T06:41:36;-0.90;99.99
69823;SHT31;57119;52.516;13.508;2023-02-15T06:44:02;-1.01;99.99
69823;SHT31;57119;52.516;13.508;2023-02-15T06:46:28;-1.18;99.99
69823;SHT31;57119;52.516;13.508;2023-02-15T06:48:53;-1.10;99.99
69823;SHT31;57119;52.516;13.508;2023-02-15T06:51:19;-1.11;99.99
69823;SHT31;57119;52.516;13.508;2023-02-15T06:53:44;-1.05;99.99
69823;SHT31;57119;52.516;13.508;2023-02-15T06:56:10;-1.05;99.99
69823;SHT31;57119;52.516;13.508;2023-02-15T06:58:36;-0.99;99.99
69823;SHT31;57119;52.516;13.508;2023-02-15T07:01:02;-1.00;99.99
69823;SHT31;57119;52.516;13.508;2023-02-15T07:03:29;-0.89;99.99
69823;SHT31;57119;52.516;13.508;2023-02-15T07:05:56;-0.84;99.99
69823;SHT31;57119;52.516;13.508;2023-02-15T07:08:22;-0.94;99.99
69823;SHT31;57119;52.516;13.508;2023-02-15T07:10:49;-0.80;99.99
69823;SHT31;57119;52.516;13.508;2023-02-15T07:13:14;-0.84;99.99
69823;SHT31;57119;52.516;13.508;2023-02-15T07:15:39;-0.84;99.99
69823;SHT31;57119;52.516;13.508;2023-02-15T07:18:05;-0.80;99.99
69823;SHT31;57119;52.516;13.508;2023-02-15T07:20:30;-0.94;99.99
69823;SHT31;57119;52.516;13.508;2023-02-15T07:22:55;-0.94;99.99
69823;SHT31;57119;52.516;13.508;2023-02-15T07:25:21;-0.90;99.99
69823;SHT31;57119;52.516;13.508;2023-02-15T07:27:46;-0.61;99.99
69823;SHT31;57119;52.516;13.508;2023-02-15T07:30:14;-0.58;99.99
69823;SHT31;57119;52.516;13.508;2023-02-15T07:32:40;-0.69;99.99
69823;SHT31;57119;52.516;13.508;2023-02-15T07:35:26;-0.69;99.99
69823;SHT31;57119;52.516;13.508;2023-02-15T07:37:51;-0.62;99.99
69823;SHT31;57119;52.516;13.508;2023-02-15T07:40:18;-0.56;99.99
69823;SHT31;57119;52.516;13.508;2023-02-15T07:42:43;-0.42;99.99
69823;SHT31;57119;52.516;13.508;2023-02-15T07:45:08;-0.58;99.99
69823;SHT31;57119;52.516;13.508;2023-02-15T07:47:34;-0.46;99.99
69823;SHT31;57119;52.516;13.508;2023-02-15T07:49:59;-0.38;99.99
69823;SHT31;57119;52.516;13.508;2023-02-15T07:52:25;-0.29;99.99
69823;SHT31;57119;52.516;13.508;2023-02-15T07:54:50;-0.51;99.99
69823;SHT31;57119;52.516;13.508;2023-02-15T07:57:16;-0.45;99.99
69823;SHT31;57119;52.516;13.508;2023-02-15T07:59:41;-0.18;99.99
69823;SHT31;57119;52.516;13.508;2023-02-15T08:02:10;-0.26;99.99
69823;SHT31;57119;52.516;13.508;2023-02-15T08:04:35;-0.15;99.99
69823;SHT31;57119;52.516;13.508;2023-02-15T08:07:01;-0.03;99.99
69823;SHT31;57119;52.516;13.508;2023-02-15T08:09:26;0.03;99.99
69823;SHT31;57119;52.516;13.508;2023-02-15T08:11:51;0.14;99.99
69823;SHT31;57119;52.516;13.508;2023-02-15T08:14:21;0.26;99.99
69823;SHT31;57119;52.516;13.508;2023-02-15T08:16:51;0.27;99.99
69823;SHT31;57119;52.516;13.508;2023-02-15T08:19:28;0.23;99.99
69823;SHT31;57119;52.516;13.508;2023-02-15T08:21:58;0.11;99.99
69823;SHT31;57119;52.516;13.508;2023-02-15T08:24:29;-0.05;99.99
69823;SHT31;57119;52.516;13.508;2023-02-15T08:26:54;-0.21;99.99
69823;SHT31;57119;52.516;13.508;2023-02-15T08:29:23;0.00;99.99
69823;SHT31;57119;52.516;13.508;2023-02-15T08:31:50;-0.11;99.99
69823;SHT31;57119;52.516;13.508;2023-02-15T08:34:17;-0.05;99.99
69823;SHT31;57119;52.516;13.508;2023-02-15T08:36:43;-0.11;99.99
69823;SHT31;57119;52.516;13.508;2023-02-15T08:39:13;-0.22;99.99
69823;SHT31;57119;52.516;13.508;2023-02-15T08:41:42;-0.14;99.99
69823;SHT31;57119;52.516;13.508;2023-02-15T08:44:08;-0.13;99.99
69823;SHT31;57119;52.516;13.508;2023-02-15T08:46:36;-0.03;99.99
69823;SHT31;57119;52.516;13.508;2023-02-15T08:49:03;0.09;99.99
69823;SHT31;57119;52.516;13.508;2023-02-15T08:51:31;0.11;99.99
69823;SHT31;57119;52.516;13.508;2023-02-15T08:53:58;0.24;99.99
69823;SHT31;57119;52.516;13.508;2023-02-15T08:56:26;0.28;99.99
69823;SHT31;57119;52.516;13.508;2023-02-15T08:58:53;0.41;99.99
69823;SHT31;57119;52.516;13.508;2023-02-15T09:01:20;0.44;99.99
69823;SHT31;57119;52.516;13.508;2023-02-15T09:03:48;0.51;99.99
69823;SHT31;57119;52.516;13.508;2023-02-15T09:06:14;0.58;99.99
69823;SHT31;57119;52.516;13.508;2023-02-15T09:08:40;0.57;99.99
69823;SHT31;57119;52.516;13.508;2023-02-15T09:11:07;0.91;99.99
69823;SHT31;57119;52.516;13.508;2023-02-15T09:13:33;1.17;99.99
69823;SHT31;57119;52.516;13.508;2023-02-15T09:16:04;1.16;99.99
69823;SHT31;57119;52.516;13.508;2023-02-15T09:18:35;1.24;99.99
69823;SHT31;57119;52.516;13.508;2023-02-15T09:21:32;1.27;99.99
69823;SHT31;57119;52.516;13.508;2023-02-15T09:23:59;1.29;99.99
69823;SHT31;57119;52.516;13.508;2023-02-15T09:26:26;1.33;99.99
69823;SHT31;57119;52.516;13.508;2023-02-15T09:28:55;1.68;99.99
69823;SHT31;57119;52.516;13.508;2023-02-15T09:31:23;1.92;99.99
69823;SHT31;57119;52.516;13.508;2023-02-15T09:33:50;1.82;99.99
69823;SHT31;57119;52.516;13.508;2023-02-15T09:36:30;1.79;99.99
69823;SHT31;57119;52.516;13.508;2023-02-15T09:39:01;1.78;99.99
69823;SHT31;57119;52.516;13.508;2023-02-15T09:46:49;1.77;99.99
69823;SHT31;57119;52.516;13.508;2023-02-15T10:00:23;2.81;98.71
69823;SHT31;57119;52.516;13.508;2023-02-15T10:11:28;2.64;99.26
69823;SHT31;57119;52.516;13.508;2023-02-15T10:14:35;2.80;98.39
69823;SHT31;57119;52.516;13.508;2023-02-15T10:17:29;2.71;98.84
69823;SHT31;57119;52.516;13.508;2023-02-15T10:25:46;3.43;96.37
69823;SHT31;57119;52.516;13.508;2023-02-15T10:28:23;3.63;96.28
69823;SHT31;57119;52.516;13.508;2023-02-15T10:30:49;3.53;96.19
69823;SHT31;57119;52.516;13.508;2023-02-15T10:39:09;4.33;93.70
69823;SHT31;57119;52.516;13.508;2023-02-15T10:41:45;4.97;91.91
69823;SHT31;57119;52.516;13.508;2023-02-15T10:44:42;5.32;90.10
69823;SHT31;57119;52.516;13.508;2023-02-15T10:47:27;6.71;87.65
69823;SHT31;57119;52.516;13.508;2023-02-15T10:52:54;9.38;78.67
69823;SHT31;57119;52.516;13.508;2023-02-15T11:03:42;15.46;62.67
69823;SHT31;57119;52.516;13.508;2023-02-15T11:06:17;15.49;60.77
69823;SHT31;57119;52.516;13.508;2023-02-15T11:08:45;13.47;63.29
69823;SHT31;57119;52.516;13.508;2023-02-15T11:11:21;14.48;62.31
69823;SHT31;57119;52.516;13.508;2023-02-15T11:13:51;14.79;60.88
69823;SHT31;57119;52.516;13.508;2023-02-15T11:16:22;14.47;62.70
69823;SHT31;57119;52.516;13.508;2023-02-15T11:18:57;14.24;61.98
69823;SHT31;57119;52.516;13.508;2023-02-15T11:21:32;15.43;60.96
69823;SHT31;57119;52.516;13.508;2023-02-15T11:24:09;15.08;60.09
69823;SHT31;57119;52.516;13.508;2023-02-15T11:29:32;15.95;56.51
69823;SHT31;57119;52.516;13.508;2023-02-15T11:32:04;17.55;55.40
69823;SHT31;57119;52.516;13.508;2023-02-15T11:34:43;16.67;55.85
69823;SHT31;57119;52.516;13.508;2023-02-15T11:37:15;18.30;53.05
69823;SHT31;57119;52.516;13.508;2023-02-15T11:39:42;18.82;52.09
69823;SHT31;57119;52.516;13.508;2023-02-15T11:42:14;16.52;54.98
69823;SHT31;57119;52.516;13.508;2023-02-15T11:47:13;18.17;51.32
69823;SHT31;57119;52.516;13.508;2023-02-15T11:49:39;16.71;55.53
69823;SHT31;57119;52.516;13.508;2023-02-15T11:52:07;18.73;51.59
69823;SHT31;57119;52.516;13.508;2023-02-15T11:54:40;17.10;53.92
69823;SHT31;57119;52.516;13.508;2023-02-15T11:57:31;17.93;53.38
69823;SHT31;57119;52.516;13.508;2023-02-15T12:03:05;19.90;50.34
69823;SHT31;57119;52.516;13.508;2023-02-15T12:05:35;18.99;50.23
69823;SHT31;57119;52.516;13.508;2023-02-15T12:08:08;20.05;50.08
69823;SHT31;57119;52.516;13.508;2023-02-15T12:10:39;19.61;49.51
69823;SHT31;57119;52.516;13.508;2023-02-15T12:13:13;18.69;50.50
69823;SHT31;57119;52.516;13.508;2023-02-15T12:15:42;19.44;49.16
69823;SHT31;57119;52.516;13.508;2023-02-15T12:18:21;19.50;50.16
69823;SHT31;57119;52.516;13.508;2023-02-15T12:20:49;20.13;48.66
69823;SHT31;57119;52.516;13.508;2023-02-15T12:23:15;19.64;49.53
69823;SHT31;57119;52.516;13.508;2023-02-15T12:25:49;21.01;47.24
69823;SHT31;57119;52.516;13.508;2023-02-15T12:28:36;19.81;48.62
69823;SHT31;57119;52.516;13.508;2023-02-15T12:31:09;19.50;48.54
69823;SHT31;57119;52.516;13.508;2023-02-15T12:33:43;21.32;46.83
69823;SHT31;57119;52.516;13.508;2023-02-15T12:36:31;19.53;48.54
69823;SHT31;57119;52.516;13.508;2023-02-15T12:41:31;18.01;51.68
69823;SHT31;57119;52.516;13.508;2023-02-15T12:44:15;19.69;50.12
69823;SHT31;57119;52.516;13.508;2023-02-15T12:46:41;18.51;51.01
69823;SHT31;57119;52.516;13.508;2023-02-15T12:51:49;20.27;48.76
69823;SHT31;57119;52.516;13.508;2023-02-15T12:54:39;20.06;48.57
69823;SHT31;57119;52.516;13.508;2023-02-15T12:57:30;21.16;48.36
69823;SHT31;57119;52.516;13.508;2023-02-15T13:00:02;18.41;50.97
69823;SHT31;57119;52.516;13.508;2023-02-15T13:02:34;18.54;51.59
69823;SHT31;57119;52.516;13.508;2023-02-15T13:05:51;17.97;51.44
69823;SHT31;57119;52.516;13.508;2023-02-15T13:10:40;19.38;49.38
69823;SHT31;57119;52.516;13.508;2023-02-15T13:13:10;20.41;48.51
69823;SHT31;57119;52.516;13.508;2023-02-15T13:15:41;22.35;45.42
69823;SHT31;57119;52.516;13.508;2023-02-15T13:18:16;19.53;48.85
69823;SHT31;57119;52.516;13.508;2023-02-15T13:20:44;22.66;45.60
69823;SHT31;57119;52.516;13.508;2023-02-15T13:23:32;18.61;51.23
69823;SHT31;57119;52.516;13.508;2023-02-15T13:26:03;19.60;50.58
69823;SHT31;57119;52.516;13.508;2023-02-15T13:28:39;19.96;49.50
69823;SHT31;57119;52.516;13.508;2023-02-15T13:31:12;17.08;52.48
69823;SHT31;57119;52.516;13.508;2023-02-15T13:33:39;16.70;55.52
69823;SHT31;57119;52.516;13.508;2023-02-15T13:36:26;17.89;53.12
69823;SHT31;57119;52.516;13.508;2023-02-15T13:39:43;18.17;53.01
69823;SHT31;57119;52.516;13.508;2023-02-15T13:45:10;21.12;48.54
69823;SHT31;57119;52.516;13.508;2023-02-15T13:47:46;20.15;49.31
69823;SHT31;57119;52.516;13.508;2023-02-15T13:50:55;20.05;48.55
69823;SHT31;57119;52.516;13.508;2023-02-15T13:59:28;20.04;48.69
69823;SHT31;57119;52.516;13.508;2023-02-15T14:07:57;17.82;53.46
69823;SHT31;57119;52.516;13.508;2023-02-15T14:10:34;17.94;52.68
69823;SHT31;57119;52.516;13.508;2023-02-15T14:15:55;19.79;51.13
69823;SHT31;57119;52.516;13.508;2023-02-15T14:18:46;19.95;49.72
69823;SHT31;57119;52.516;13.508;2023-02-15T14:29:07;16.29;56.76
69823;SHT31;57119;52.516;13.508;2023-02-15T14:31:38;14.88;60.10
69823;SHT31;57119;52.516;13.508;2023-02-15T14:34:23;13.65;63.13
69823;SHT31;57119;52.516;13.508;2023-02-15T14:36:51;13.25;64.73
69823;SHT31;57119;52.516;13.508;2023-02-15T14:39:28;12.76;66.45
69823;SHT31;57119;52.516;13.508;2023-02-15T14:42:28;11.98;68.23
69823;SHT31;57119;52.516;13.508;2023-02-15T14:45:12;11.52;70.22
69823;SHT31;57119;52.516;13.508;2023-02-15T14:47:51;11.40;70.59
69823;SHT31;57119;52.516;13.508;2023-02-15T14:50:38;11.35;71.15
69823;SHT31;57119;52.516;13.508;2023-02-15T14:56:17;11.04;72.70
69823;SHT31;57119;52.516;13.508;2023-02-15T15:01:31;12.11;69.45
69823;SHT31;57119;52.516;13.508;2023-02-15T15:04:31;13.55;66.46
69823;SHT31;57119;52.516;13.508;2023-02-15T15:09:34;13.52;64.95
69823;SHT31;57119;52.516;13.508;2023-02-15T15:14:57;14.06;63.75
69823;SHT31;57119;52.516;13.508;2023-02-15T15:20:12;12.90;66.51
69823;SHT31;57119;52.516;13.508;2023-02-15T15:22:42;11.58;70.25
69823;SHT31;57119;52.516;13.508;2023-02-15T15:36:04;10.75;73.59
69823;SHT31;57119;52.516;13.508;2023-02-15T15:39:01;10.50;74.51
69823;SHT31;57119;52.516;13.508;2023-02-15T15:47:20;9.82;78.05
69823;SHT31;57119;52.516;13.508;2023-02-15T15:49:49;9.75;77.75
69823;SHT31;57119;52.516;13.508;2023-02-15T15:52:17;9.50;78.50
69823;SHT31;57119;52.516;13.508;2023-02-15T15:54:44;9.15;79.47
69823;SHT31;57119;52.516;13.508;2023-02-15T15:59:46;8.65;81.25
69823;SHT31;57119;52.516;13.508;2023-02-15T16:02:14;8.34;82.42
69823;SHT31;57119;52.516;13.508;2023-02-15T16:04:41;8.04;83.64
69823;SHT31;57119;52.516;13.508;2023-02-15T16:09:53;7.41;85.65
69823;SHT31;57119;52.516;13.508;2023-02-15T16:12:19;7.30;86.30
69823;SHT31;57119;52.516;13.508;2023-02-15T16:14:45;7.10;86.95
69823;SHT31;57119;52.516;13.508;2023-02-15T16:17:36;6.89;87.88
69823;SHT31;57119;52.516;13.508;2023-02-15T16:20:12;6.68;87.75
69823;SHT31;57119;52.516;13.508;2023-02-15T16:22:39;6.50;88.08
69823;SHT31;57119;52.516;13.508;2023-02-15T16:25:24;6.32;89.15
69823;SHT31;57119;52.516;13.508;2023-02-15T16:27:54;6.16;89.88
69823;SHT31;57119;52.516;13.508;2023-02-15T16:32:46;5.85;90.99
69823;SHT31;57119;52.516;13.508;2023-02-15T16:35:17;5.67;90.97
69823;SHT31;57119;52.516;13.508;2023-02-15T16:37:43;5.53;91.46
69823;SHT31;57119;52.516;13.508;2023-02-15T16:40:28;5.32;91.69
69823;SHT31;57119;52.516;13.508;2023-02-15T16:43:01;5.21;92.13
69823;SHT31;57119;52.516;13.508;2023-02-15T16:45:27;5.04;92.49
69823;SHT31;57119;52.516;13.508;2023-02-15T16:47:56;5.00;93.37
69823;SHT31;57119;52.516;13.508;2023-02-15T16:50:28;4.90;93.42
69823;SHT31;57119;52.516;13.508;2023-02-15T16:52:56;4.84;93.77
69823;SHT31;57119;52.516;13.508;2023-02-15T16:55:24;4.81;93.81
69823;SHT31;57119;52.516;13.508;2023-02-15T16:57:51;4.69;94.03
69823;SHT31;57119;52.516;13.508;2023-02-15T17:00:25;4.53;94.31
69823;SHT31;57119;52.516;13.508;2023-02-15T17:08:12;4.31;94.75
69823;SHT31;57119;52.516;13.508;2023-02-15T17:10:40;4.29;94.78
69823;SHT31;57119;52.516;13.508;2023-02-15T17:13:16;4.21;95.06
69823;SHT31;57119;52.516;13.508;2023-02-15T17:16:29;4.16;95.37
69823;SHT31;57119;52.516;13.508;2023-02-15T17:18:45;4.05;95.38
69823;SHT31;57119;52.516;13.508;2023-02-15T17:21:18;3.90;95.79
69823;SHT31;57119;52.516;13.508;2023-02-15T17:23:46;3.90;96.44
69823;SHT31;57119;52.516;13.508;2023-02-15T17:26:17;3.83;96.40
69823;SHT31;57119;52.516;13.508;2023-02-15T17:28:47;3.64;96.69
69823;SHT31;57119;52.516;13.508;2023-02-15T17:31:14;3.59;97.21
69823;SHT31;57119;52.516;13.508;2023-02-15T17:33:41;3.57;96.84
69823;SHT31;57119;52.516;13.508;2023-02-15T17:36:09;3.53;96.67
69823;SHT31;57119;52.516;13.508;2023-02-15T17:38:38;3.46;97.04
69823;SHT31;57119;52.516;13.508;2023-02-15T17:41:04;3.33;97.94
69823;SHT31;57119;52.516;13.508;2023-02-15T17:43:30;3.23;98.30
69823;SHT31;57119;52.516;13.508;2023-02-15T17:45:56;3.29;97.85
69823;SHT31;57119;52.516;13.508;2023-02-15T17:48:27;3.22;97.57
69823;SHT31;57119;52.516;13.508;2023-02-15T17:50:56;3.20;97.42
69823;SHT31;57119;52.516;13.508;2023-02-15T17:53:23;3.13;97.42
69823;SHT31;57119;52.516;13.508;2023-02-15T17:55:48;3.11;97.00
69823;SHT31;57119;52.516;13.508;2023-02-15T17:58:15;3.11;97.37
69823;SHT31;57119;52.516;13.508;2023-02-15T18:00:43;3.04;97.48
69823;SHT31;57119;52.516;13.508;2023-02-15T18:06:22;2.97;98.19
69823;SHT31;57119;52.516;13.508;2023-02-15T18:09:18;2.91;98.05
69823;SHT31;57119;52.516;13.508;2023-02-15T18:14:42;2.85;98.13
69823;SHT31;57119;52.516;13.508;2023-02-15T18:17:10;2.76;97.96
69823;SHT31;57119;52.516;13.508;2023-02-15T18:19:37;2.74;97.85
69823;SHT31;57119;52.516;13.508;2023-02-15T18:22:09;2.70;97.95
69823;SHT31;57119;52.516;13.508;2023-02-15T18:24:35;2.60;98.26
69823;SHT31;57119;52.516;13.508;2023-02-15T18:27:01;2.62;99.19